x

Buoy A01 - Mass. Bay/stellwagen (44029) Wave Buoy

1:04 - Sat 1st Oct 2016 All times are EDT. -4 hours from GMT.

  • Sig Wave height 6.6ft
  • Peak Period 8s
  • Wind
    20mph, 25mph gusts
  • Sea Temp 60°f
  • Ar Temp 59°f
  • Sea Pressure 1023.8mb
  • Buoy A01 - Mass. Bay/stellwagen
  • Buoy A01 - Mass. Bay/stellwagen

More Historic Weather Station data

Upgrade to MSW Pro to gain access to the past 30 days of data for over 8000 Wavebouys and Weather Stations around the globe.

Join Pro

Comparision Forecast

View Surf forecast
   
Sáb 10/01 1:04 6.5ft 8s 20 25 mph 1023.8mb 60f 59f
12:04  -   -  20 25 mph 1024.6mb 60f 59f
11:04 6ft 8s 22 25 mph 1024.9mb 60f 59f
10:04  -   -  22 27 mph 1025.4mb 60f 58f
9:04 6ft 7s 20 25 mph 1026mb 60f 58f
8:04  -   -  20 25 mph 1025.9mb 60f 58f
7:04 5.5ft 7s 22 25 mph 1025.9mb 60f 58f
6:04 5.5ft 7s 20 22 mph 1025.9mb 60f 58f
5:04 5.5ft 8s 22 27 mph 1025.9mb 60f 58f
4:04 6ft 8s 20 25 mph 1025.9mb 60f 59f
3:04 6ft 8s 22 25 mph 1026mb 61f 59f
2:04 5.5ft 8s 20 22 mph 1026.7mb 61f 60f
1:04 5.5ft 7s 20 25 mph 1027mb 61f 60f
12:04  -   -  20 22 mph 1027.3mb 60f 60f
Sex 09/30 11:04 5.5ft 6s 18 22 mph 1027.7mb 60f 59f
10:04 6.5ft 8s 18 22 mph 1028.3mb 60f 59f
9:04 6ft 8s 20 22 mph 1028.4mb 60f 59f
8:04 6ft 7s 18 20 mph 1028.6mb 60f 59f
6:04  -   -  18 22 mph 1028.9mb 60f 59f
5:04 6ft 8s 18 22 mph 1029.3mb 60f 59f
4:04 6ft 8s 18 22 mph 1029.4mb 60f 59f
3:04 9ft 13s 20 25 mph 1029.5mb 60f 59f
2:04 5ft 8s 18 22 mph 1030.2mb 61f 59f
1:04 5ft 8s 20 22 mph 1030.5mb 61f 59f
12:04  -   -  20 25 mph 1030.5mb 60f 59f
11:04 6ft 7s 20 22 mph 1030.8mb 60f 59f
10:04  -   -  18 22 mph 1031.3mb 60f 59f
9:04 5.5ft 8s 18 20 mph 1031.4mb 60f 59f
8:04 6ft 8s 20 22 mph 1031.2mb 60f 58f
7:04  -   -  20 25 mph 1031mb 61f 59f
6:04 6ft 8s 20 22 mph 1031mb 61f 59f
5:04 7ft 8s 20 22 mph 1031.1mb 61f 59f
4:04 7ft 8s 20 25 mph 1031mb 60f 59f
3:04 7ft 8s 20 25 mph 1031.4mb 60f 59f
2:04 7ft 8s 22 27 mph 1031.1mb 60f 59f
1:04 7ft 9s 20 25 mph 1032mb 60f 60f
12:04 6.5ft 9s 20 25 mph 1031.8mb 60f 60f
Qui 09/29 11:04 6ft 6s 20 27 mph 1032.4mb 60f 59f
10:04 6.5ft 8s 20 25 mph 1032.2mb 60f 59f
9:04 7ft 8s 22 25 mph 1031.8mb 60f 58f
8:04 7ft 8s 20 22 mph 1032mb 60f 58f
7:04 6.5ft 8s 18 22 mph 1032.1mb 60f 58f
6:04 7ft 8s 18 22 mph 1032.1mb 61f 58f
5:04  -   -  18 20 mph 1032mb 61f 57f
4:04 7.5ft 9s 18 22 mph 1031.9mb 61f 57f
3:04 8ft 7s 18 25 mph 1031.9mb 61f 57f
2:04 8ft 9s 20 22 mph 1032.1mb 61f 56f
1:04 7ft 9s 20 22 mph 1032.3mb 61f 56f
12:04 8ft 8s 22 27 mph 1031.8mb 61f 56f
11:04 7ft 8s 22 29 mph 1031.4mb 61f 57f
10:04 7ft 8s 22 27 mph 1031.3mb 61f 57f
9:04 7ft 8s 22 29 mph 1030.7mb 61f 56f
8:04 6.5ft 7s 25 29 mph 1030mb 61f 57f
7:04 8ft 8s 25 29 mph 1029.4mb 61f 57f
6:04 8ft 8s 22 27 mph 1028.8mb 61f 57f
5:04 8.5ft 8s 22 29 mph 1028.4mb 61f 58f
4:04  -   -  22 27 mph 1027.8mb 61f 58f
3:04 8ft 8s 25 29 mph 1027.4mb 61f 59f
2:04  -   -  25 29 mph 1027.2mb 61f 59f
1:04 8.5ft 8s 27 34 mph 1027mb 61f 59f
12:04 8ft 8s 22 29 mph 1027.1mb 61f 60f
Qua 09/28 11:04 8.5ft 8s 25 29 mph 1026.6mb 61f 60f
10:04  -   -  27 31 mph 1026.2mb 61f 60f
9:04 7.5ft 8s 27 31 mph 1025.6mb 61f 60f
8:04 7ft 8s 27 31 mph 1025.3mb 61f 59f
7:04 7ft 8s 27 29 mph 1024.6mb 61f 58f
6:04 6.5ft 7s 25 27 mph 1024.7mb 61f 58f
5:04 6.5ft 8s 25 29 mph 1024.5mb 61f 57f
4:04  -   -  25 29 mph 1024.2mb 61f 57f
3:04 6.5ft 8s 25 29 mph 1024mb 61f 57f
2:04 6.5ft 7s 27 31 mph 1023.8mb 61f 56f
1:04 6ft 7s 22 29 mph 1023.8mb 61f 57f
12:04  -   -  22 29 mph 1023.4mb 61f 57f
11:04 6ft 6s 22 27 mph 1023.1mb 61f 58f
10:04  -   -  22 27 mph 1023mb 61f 58f
9:04 4.5ft 5s 22 27 mph 1022.5mb 62f 58f
8:04 4.5ft 4s 20 25 mph 1021.7mb 62f 58f
7:04  -   -  20 22 mph 1020.9mb 62f 58f
6:04 4ft 5s 18 22 mph 1020.3mb 62f 59f
5:04 3.5ft 4s 20 25 mph 1019.5mb 62f 60f
4:04 2.5ft 4s 18 22 mph 1018.9mb 61f 62f
3:04 2.5ft 8s 16 18 mph 1018.3mb 61f 62f
2:04 2.5ft 3s 16 20 mph 1017.8mb 61f 62f
1:04  -   -  11 13 mph 1017mb 62f 62f
12:04 1ft 10s 11 13 mph 1016.3mb 62f 62f
Ter 09/27 11:04  -   -  9 11 mph 1015.8mb 62f 62f
10:04 1ft 11s 7 9 mph 1015mb 62f 62f
9:04 1ft 6s 7 9 mph 1014.5mb 62f 62f
8:04 1.3ft 5s 9
mph
1014.2mb 62f 63f
7:04 1.3ft 5s 7 9 mph 1013mb 62f 63f